createdAt,value
2024-05-09T00:01:48.095Z,102909.69
2024-05-09T00:04:18.187Z,102906.95
2024-05-09T00:06:48.173Z,102909.53
2024-05-09T00:09:18.087Z,102914.52
2024-05-09T00:11:48.281Z,102911.73
2024-05-09T00:14:18.395Z,102906.08
2024-05-09T00:16:49.539Z,102909.69
2024-05-09T00:19:19.774Z,102904.91
2024-05-09T00:21:49.836Z,102900.61
2024-05-09T00:24:19.453Z,102900.61
2024-05-09T00:26:49.757Z,102904.55
2024-05-09T00:29:20.170Z,102903.70
2024-05-09T00:31:50.305Z,102903.00
2024-05-09T00:34:20.356Z,102903.84
2024-05-09T00:36:50.982Z,102897.53
2024-05-09T00:39:21.110Z,102892.22
2024-05-09T00:41:51.194Z,102897.19
2024-05-09T00:44:21.254Z,102896.16
2024-05-09T00:46:52.873Z,102896.48
2024-05-09T00:49:23.995Z,102899.56
2024-05-09T00:51:57.056Z,102897.67
2024-05-09T00:54:27.885Z,102894.90
2024-05-09T00:56:58.081Z,102891.80
2024-05-09T00:59:30.368Z,102891.80
2024-05-09T01:02:01.478Z,102894.37
2024-05-09T01:04:31.526Z,102885.30
2024-05-09T01:07:02.079Z,102885.30
2024-05-09T01:09:32.097Z,102884.28
2024-05-09T01:12:02.312Z,102891.84
2024-05-09T01:14:32.465Z,102886.14
2024-05-09T01:17:02.552Z,102886.43
2024-05-09T01:19:33.951Z,102884.06
2024-05-09T01:22:07.634Z,102884.06
2024-05-09T01:24:37.790Z,102877.91
2024-05-09T01:27:07.943Z,102876.68
2024-05-09T01:29:42.830Z,102872.09
2024-05-09T01:32:13.573Z,102873.77
2024-05-09T01:34:44.112Z,102868.86
2024-05-09T01:37:15.412Z,102870.21
2024-05-09T01:39:46.131Z,102863.66
2024-05-09T01:42:17.324Z,102865.20
2024-05-09T01:44:47.941Z,102865.54
2024-05-09T01:47:18.239Z,102862.29
2024-05-09T01:49:48.747Z,102865.22
2024-05-09T01:52:19.164Z,102862.77
2024-05-09T01:54:49.410Z,102861.91
2024-05-09T01:57:19.343Z,102865.33
2024-05-09T01:59:49.594Z,102868.45
2024-05-09T02:02:19.518Z,102865.13
2024-05-09T02:04:50.645Z,102863.45
2024-05-09T02:07:23.870Z,102858.84
2024-05-09T02:09:55.255Z,102865.13
2024-05-09T02:12:26.926Z,102869.40
2024-05-09T02:14:57.674Z,102863.83
2024-05-09T02:17:29.986Z,102870.67
2024-05-09T02:20:06.039Z,102864.27
2024-05-09T02:22:38.788Z,102860.27
2024-05-09T02:25:09.269Z,102859.75
2024-05-09T02:27:44.002Z,102867.09
2024-05-09T02:30:29.934Z,102860.68
2024-05-09T02:32:56.227Z,102860.17
2024-05-09T02:35:26.976Z,102860.17
2024-05-09T02:38:01.076Z,102861.78
2024-05-09T02:40:36.970Z,102864.88
2024-05-09T02:43:04.671Z,102864.33
2024-05-09T02:45:42.042Z,102860.86
2024-05-09T02:48:13.628Z,102861.20
2024-05-09T02:50:44.900Z,102863.17
2024-05-09T02:53:15.960Z,102860.34
2024-05-09T02:55:49.103Z,102867.99
2024-05-09T02:58:19.384Z,102864.92
2024-05-09T03:00:53.372Z,102866.92
2024-05-09T03:03:28.779Z,102862.29
2024-05-09T03:05:59.150Z,102863.55
2024-05-09T03:08:29.677Z,102860.98
2024-05-09T03:11:00.227Z,102856.55
2024-05-09T03:13:30.851Z,102855.06
2024-05-09T03:16:01.883Z,102856.27
2024-05-09T03:18:34.516Z,102858.48
2024-05-09T03:21:04.860Z,102855.54
2024-05-09T03:23:36.728Z,102849.27
2024-05-09T03:26:13.257Z,102854.73
2024-05-09T03:28:45.378Z,102849.33
2024-05-09T03:31:18.520Z,102858.15
2024-05-09T03:33:48.784Z,102854.44
2024-05-09T03:36:19.090Z,102850.50
2024-05-09T03:38:51.419Z,102852.89
2024-05-09T03:41:21.666Z,102849.42
2024-05-09T03:43:52.086Z,102852.91
2024-05-09T03:46:23.798Z,102851.38
2024-05-09T03:48:54.117Z,102838.90
2024-05-09T03:51:24.687Z,102850.29
2024-05-09T03:53:55.250Z,102847.62
2024-05-09T03:56:27.417Z,102845.56
2024-05-09T03:59:00.240Z,102842.71
2024-05-09T04:01:32.249Z,102842.09
2024-05-09T04:04:03.376Z,102851.19
2024-05-09T04:06:33.528Z,102849.44
2024-05-09T04:09:05.095Z,102844.14
2024-05-09T04:11:41.043Z,102840.16
2024-05-09T04:14:16.294Z,102839.25
2024-05-09T04:16:48.202Z,102848.23
2024-05-09T04:19:24.977Z,102844.98
2024-05-09T04:21:55.233Z,102847.84
2024-05-09T04:24:27.083Z,102842.83
2024-05-09T04:26:57.596Z,102843.78
2024-05-09T04:29:29.794Z,102839.81
2024-05-09T04:31:59.868Z,102844.31
2024-05-09T04:34:34.026Z,102844.70
2024-05-09T04:37:05.183Z,102841.80
2024-05-09T04:39:35.733Z,102845.74
2024-05-09T04:42:11.463Z,102849.55
2024-05-09T04:44:44.263Z,102846.59
2024-05-09T04:47:15.084Z,102847.49
2024-05-09T04:49:46.839Z,102848.05
2024-05-09T04:52:17.269Z,102852.09
2024-05-09T04:54:47.852Z,102852.45
2024-05-09T04:57:18.623Z,102852.73
2024-05-09T04:59:52.422Z,102851.08
2024-05-09T05:02:27.091Z,102850.95
2024-05-09T05:04:59.433Z,102855.02
2024-05-09T05:07:31.727Z,102860.87
2024-05-09T05:10:03.280Z,102854.20
2024-05-09T05:12:52.048Z,102854.41
2024-05-09T05:15:23.793Z,102859.02
2024-05-09T05:17:54.375Z,102856.50
2024-05-09T05:20:33.041Z,102857.84
2024-05-09T05:22:56.289Z,102857.84
2024-05-09T05:25:26.358Z,102850.39
2024-05-09T05:27:56.847Z,102861.57
2024-05-09T05:30:32.499Z,102865.57
2024-05-09T05:33:00.617Z,102866.81
2024-05-09T05:35:35.656Z,102870.98
2024-05-09T05:38:09.198Z,102870.98
2024-05-09T05:40:42.991Z,102873.87
2024-05-09T05:43:23.332Z,102866.21
2024-05-09T05:48:22.112Z,102874.09
2024-05-09T05:50:52.688Z,102874.59
2024-05-09T05:53:24.292Z,102871.50
2024-05-09T05:55:54.761Z,102874.20
2024-05-09T05:58:26.646Z,102875.41
2024-05-09T06:00:56.913Z,102878.64
2024-05-09T06:03:31.788Z,102883.19
2024-05-09T06:06:04.363Z,102878.28
2024-05-09T06:08:34.843Z,102877.77
2024-05-09T06:11:05.486Z,102861.72
2024-05-09T06:13:35.598Z,102861.72
2024-05-09T06:16:07.452Z,102874.45
2024-05-09T06:18:37.705Z,102874.72
2024-05-09T06:21:08.707Z,102874.72
2024-05-09T06:23:51.198Z,102871.70
2024-05-09T06:26:21.567Z,102871.37
2024-05-09T06:28:57.513Z,102871.37
2024-05-09T06:31:27.653Z,102873.73
2024-05-09T06:33:58.818Z,102859.19
2024-05-09T06:36:28.716Z,102859.19
2024-05-09T06:38:58.919Z,102874.86
2024-05-09T06:41:29.845Z,102873.66
2024-05-09T06:44:00.366Z,102874.58
2024-05-09T06:46:36.474Z,102876.84
2024-05-09T06:49:08.937Z,102864.93
2024-05-09T06:51:43.095Z,102873.89
2024-05-09T06:54:13.522Z,102863.77
2024-05-09T06:56:44.541Z,102867.52
2024-05-09T06:59:16.266Z,102867.52
2024-05-09T07:01:46.724Z,102872.82
2024-05-09T07:04:17.140Z,102873.75
2024-05-09T07:06:53.238Z,102873.33
2024-05-09T07:09:23.528Z,102872.77
2024-05-09T07:11:56.804Z,102873.66
2024-05-09T07:14:27.213Z,102872.35
2024-05-09T07:17:03.811Z,102871.74
2024-05-09T07:19:37.219Z,102871.50
2024-05-09T07:22:11.867Z,102872.48
2024-05-09T07:24:42.344Z,102873.45
2024-05-09T07:27:14.185Z,102869.21
2024-05-09T07:29:47.416Z,102853.03
2024-05-09T07:32:28.740Z,102872.39
2024-05-09T07:34:55.294Z,102837.83
2024-05-09T07:37:25.450Z,102837.83
2024-05-09T07:39:58.171Z,102861.05
2024-05-09T07:42:27.962Z,102860.27
2024-05-09T07:45:14.857Z,102845.27
2024-05-09T07:48:57.523Z,102845.27
2024-05-09T07:52:00.963Z,102868.02
2024-05-09T07:53:33.464Z,102862.73
2024-05-09T07:55:09.780Z,102867.59
2024-05-09T07:57:42.916Z,102865.04
2024-05-09T08:00:20.238Z,102862.95
2024-05-09T08:02:46.545Z,102866.09
2024-05-09T08:05:16.889Z,102861.62
2024-05-09T08:07:47.518Z,102864.48
2024-05-09T08:10:22.231Z,102858.45
2024-05-09T08:12:49.887Z,102863.03
2024-05-09T08:15:20.210Z,102852.95
2024-05-09T08:17:53.489Z,102852.32
2024-05-09T08:20:30.955Z,102856.80
2024-05-09T08:22:55.464Z,102854.50
2024-05-09T08:25:25.718Z,102847.94
2024-05-09T08:28:01.062Z,102846.73
2024-05-09T08:30:37.181Z,102842.38
2024-05-09T08:33:07.791Z,102843.76
2024-05-09T08:35:38.611Z,102820.07
2024-05-09T08:38:09.978Z,102823.03
2024-05-09T08:40:40.228Z,102823.03
2024-05-09T08:43:13.069Z,102822.82
2024-05-09T08:45:45.292Z,102822.82
2024-05-09T08:48:17.102Z,102837.90
2024-05-09T08:50:48.536Z,102836.87
2024-05-09T08:53:19.424Z,102812.11
2024-05-09T08:55:52.023Z,102812.11
2024-05-09T08:58:22.590Z,102824.83
2024-05-09T09:00:53.561Z,102824.83
2024-05-09T09:03:27.673Z,102824.50
2024-05-09T09:06:06.285Z,102823.77
2024-05-09T09:08:37.800Z,102824.56
2024-05-09T09:11:08.490Z,102807.84
2024-05-09T09:13:39.220Z,102826.92
2024-05-09T09:16:12.866Z,102826.92
2024-05-09T09:18:46.280Z,102830.48
2024-05-09T09:21:16.454Z,102825.54
2024-05-09T09:23:46.620Z,102824.75
2024-05-09T09:26:19.741Z,102827.44
2024-05-09T09:28:50.109Z,102818.31
2024-05-09T09:31:20.924Z,102808.34
2024-05-09T09:33:51.152Z,102808.93
2024-05-09T09:36:21.609Z,102815.38
2024-05-09T09:38:53.437Z,102815.18
2024-05-09T09:41:26.713Z,102814.25
2024-05-09T09:43:58.733Z,102807.28
2024-05-09T09:46:30.237Z,102810.22
2024-05-09T09:49:01.363Z,102812.83
2024-05-09T09:51:33.507Z,102807.39
2024-05-09T09:54:06.892Z,102806.02
2024-05-09T09:56:39.619Z,102806.22
2024-05-09T09:59:10.452Z,102803.33
2024-05-09T10:01:41.017Z,102801.27
2024-05-09T10:04:16.079Z,102790.38
2024-05-09T10:06:52.165Z,102790.38
2024-05-09T10:09:22.666Z,102793.03
2024-05-09T10:11:59.726Z,102791.52
2024-05-09T10:14:24.901Z,102792.79
2024-05-09T10:16:58.105Z,102787.86
2024-05-09T10:19:29.046Z,102790.25
2024-05-09T10:22:06.136Z,102785.07
2024-05-09T10:24:50.201Z,102788.00
2024-05-09T10:27:30.879Z,102782.48
2024-05-09T10:30:06.908Z,102782.58
2024-05-09T10:32:42.706Z,102756.67
2024-05-09T10:35:15.129Z,102756.67
2024-05-09T10:37:47.389Z,102776.77
2024-05-09T10:40:25.892Z,102775.63
2024-05-09T10:42:51.033Z,102761.03
2024-05-09T10:45:21.673Z,102761.03
2024-05-09T10:47:52.255Z,102769.69
2024-05-09T10:50:28.360Z,102768.84
2024-05-09T10:52:55.007Z,102764.41
2024-05-09T10:55:25.230Z,102744.22
2024-05-09T10:57:55.496Z,102744.22
2024-05-09T11:00:36.097Z,102755.21
2024-05-09T11:03:04.257Z,102754.44
2024-05-09T11:05:35.081Z,102754.44
2024-05-09T11:08:06.862Z,102747.06
2024-05-09T11:10:37.439Z,102746.80
2024-05-09T11:13:07.940Z,102745.75
2024-05-09T11:15:41.320Z,102742.92
2024-05-09T11:18:15.464Z,102736.58
2024-05-09T11:20:45.636Z,102741.38
2024-05-09T11:23:15.999Z,102738.37
2024-05-09T11:25:58.330Z,102717.50
2024-05-09T11:28:29.243Z,102737.27
2024-05-09T11:31:10.475Z,102737.27
2024-05-09T11:33:43.200Z,102726.20
2024-05-09T11:36:14.156Z,102725.86
2024-05-09T11:38:44.263Z,102724.91
2024-05-09T11:41:20.312Z,102716.12
2024-05-09T11:43:50.620Z,102718.48
2024-05-09T11:46:20.758Z,102709.67
2024-05-09T11:48:51.101Z,102694.34
2024-05-09T11:51:21.415Z,102702.19
2024-05-09T11:53:51.477Z,102701.53
2024-05-09T11:56:22.164Z,102701.75
2024-05-09T11:58:52.165Z,102699.25
2024-05-09T12:01:25.109Z,102701.21
2024-05-09T12:03:55.216Z,102681.10
2024-05-09T12:06:25.506Z,102681.10
2024-05-09T12:08:56.506Z,102698.41
2024-05-09T12:11:26.620Z,102691.01
2024-05-09T12:13:56.302Z,102676.79
2024-05-09T12:16:26.822Z,102676.79
2024-05-09T12:18:57.131Z,102684.03
2024-05-09T12:21:27.408Z,102684.32
2024-05-09T12:23:57.989Z,102680.30
2024-05-09T12:26:28.489Z,102676.97
2024-05-09T12:28:58.414Z,102681.95
2024-05-09T12:31:28.644Z,102675.77
2024-05-09T12:34:00.120Z,102670.73
2024-05-09T12:36:31.409Z,102666.96
2024-05-09T12:39:01.550Z,102663.83
2024-05-09T12:41:31.462Z,102663.22
2024-05-09T12:44:01.481Z,102642.70
2024-05-09T12:46:31.917Z,102642.70
2024-05-09T12:49:02.068Z,102654.63
2024-05-09T12:51:32.322Z,102654.89
2024-05-09T12:54:02.319Z,102646.25
2024-05-09T12:56:33.456Z,102650.07
2024-05-09T12:59:03.487Z,102647.48
2024-05-09T13:01:33.660Z,102648.80
2024-05-09T13:04:03.481Z,102644.14
2024-05-09T13:06:33.539Z,102643.70
2024-05-09T13:09:03.844Z,102643.41
2024-05-09T13:11:33.931Z,102643.41
2024-05-09T13:14:05.353Z,102638.05
2024-05-09T13:16:35.426Z,102633.27
2024-05-09T13:19:05.558Z,102620.94
2024-05-09T13:21:35.835Z,102620.94
2024-05-09T13:24:08.386Z,102641.13
2024-05-09T13:26:38.425Z,102641.73
2024-05-09T13:29:08.315Z,102640.82
2024-05-09T13:31:38.329Z,102632.28
2024-05-09T13:34:09.736Z,102607.31
2024-05-09T13:36:40.462Z,102608.06
2024-05-09T13:39:10.817Z,102608.06
2024-05-09T13:41:40.970Z,102626.44
2024-05-09T13:44:11.642Z,102625.00
2024-05-09T13:46:41.486Z,102608.12
2024-05-09T13:49:13.323Z,102608.12
2024-05-09T13:51:43.797Z,102625.41
2024-05-09T13:54:13.839Z,102621.78
2024-05-09T13:56:43.850Z,102623.38
2024-05-09T13:59:13.958Z,102627.23
2024-05-09T14:01:44.069Z,102623.73
2024-05-09T14:04:14.432Z,102614.78
2024-05-09T14:06:45.146Z,102611.61
2024-05-09T14:09:15.325Z,102621.25
2024-05-09T14:11:45.478Z,102621.23
2024-05-09T14:14:15.400Z,102620.52
2024-05-09T14:16:45.507Z,102613.28
2024-05-09T14:19:15.652Z,102612.70
2024-05-09T14:21:45.698Z,102609.50
2024-05-09T14:24:15.493Z,102612.64
2024-05-09T14:26:46.085Z,102606.45
2024-05-09T14:29:16.086Z,102603.61
2024-05-09T14:31:46.318Z,102605.05
2024-05-09T14:34:16.021Z,102603.95
2024-05-09T14:36:46.236Z,102602.69
2024-05-09T14:39:16.399Z,102598.92
2024-05-09T14:41:46.997Z,102598.45
2024-05-09T14:44:17.139Z,102579.54
2024-05-09T14:46:47.148Z,102579.54
2024-05-09T14:49:17.122Z,102597.85
2024-05-09T14:51:49.401Z,102592.34
2024-05-09T14:54:19.051Z,102586.15
2024-05-09T14:56:49.203Z,102578.92
2024-05-09T14:59:19.578Z,102585.36
2024-05-09T15:01:49.486Z,102587.23
2024-05-09T15:04:19.747Z,102588.70
2024-05-09T15:06:50.246Z,102583.39
2024-05-09T15:09:20.302Z,102573.72
2024-05-09T15:11:50.232Z,102578.16
2024-05-09T15:14:20.282Z,102575.94
2024-05-09T15:16:50.527Z,102569.71
2024-05-09T15:19:20.628Z,102567.97
2024-05-09T15:21:50.711Z,102559.56
2024-05-09T15:24:20.762Z,102565.93
2024-05-09T15:26:51.361Z,102557.73
2024-05-09T15:29:21.416Z,102563.20
2024-05-09T15:31:51.489Z,102554.38
2024-05-09T15:34:21.461Z,102544.13
2024-05-09T15:36:51.862Z,102544.13
2024-05-09T15:39:23.417Z,102558.42
2024-05-09T15:41:54.986Z,102560.73
2024-05-09T15:44:26.636Z,102548.89
2024-05-09T15:46:56.584Z,102550.23
2024-05-09T15:49:26.674Z,102547.89
2024-05-09T15:51:56.882Z,102547.31
2024-05-09T15:54:27.514Z,102546.02
2024-05-09T15:56:57.535Z,102546.79
2024-05-09T15:59:27.499Z,102538.87
2024-05-09T16:01:57.425Z,102541.47
2024-05-09T16:04:27.738Z,102543.34
2024-05-09T16:06:58.047Z,102534.46
2024-05-09T16:09:28.036Z,102528.05
2024-05-09T16:11:57.764Z,102529.77
2024-05-09T16:14:27.562Z,102528.80
2024-05-09T16:16:57.556Z,102527.11
2024-05-09T16:19:27.560Z,102520.89
2024-05-09T16:21:58.171Z,102501.56
2024-05-09T16:24:27.928Z,102501.56
2024-05-09T16:26:58.150Z,102518.83
2024-05-09T16:29:28.073Z,102513.52
2024-05-09T16:31:58.008Z,102511.23
2024-05-09T16:34:29.465Z,102518.69
2024-05-09T16:37:00.182Z,102492.71
2024-05-09T16:39:30.175Z,102485.91
2024-05-09T16:41:59.914Z,102492.81
2024-05-09T16:44:31.016Z,102492.81
2024-05-09T16:47:01.225Z,102504.13
2024-05-09T16:49:31.215Z,102504.84
2024-05-09T16:52:00.934Z,102499.73
2024-05-09T16:54:30.828Z,102501.61
2024-05-09T16:57:00.820Z,102500.92
2024-05-09T16:59:31.014Z,102506.45
2024-05-09T17:02:03.594Z,102506.88
2024-05-09T17:04:33.820Z,102498.84
2024-05-09T17:07:03.940Z,102497.17
2024-05-09T17:09:33.547Z,102496.98
2024-05-09T17:12:03.313Z,102482.16
2024-05-09T17:14:33.293Z,102482.16
2024-05-09T17:17:03.705Z,102508.71
2024-05-09T17:19:33.687Z,102499.07
2024-05-09T17:22:03.692Z,102476.20
2024-05-09T17:24:33.623Z,102476.20
2024-05-09T17:27:03.700Z,102496.31
2024-05-09T17:29:33.791Z,102491.96
2024-05-09T17:32:03.797Z,102500.02
2024-05-09T17:34:33.654Z,102467.80
2024-05-09T17:37:03.850Z,102467.80
2024-05-09T17:39:34.124Z,102487.55
2024-05-09T17:42:04.029Z,102487.11
2024-05-09T17:44:33.923Z,102476.98
2024-05-09T17:47:04.673Z,102491.14
2024-05-09T17:49:34.676Z,102488.67
2024-05-09T17:52:07.809Z,102481.89
2024-05-09T17:54:38.130Z,102477.49
2024-05-09T17:57:09.479Z,102477.10
2024-05-09T17:59:39.749Z,102476.22
2024-05-09T18:02:11.816Z,102478.52
2024-05-09T18:04:41.635Z,102482.08
2024-05-09T18:07:12.032Z,102482.08
2024-05-09T18:09:44.116Z,102480.20
2024-05-09T18:12:15.808Z,102479.55
2024-05-09T18:14:45.674Z,102473.52
2024-05-09T18:17:15.676Z,102479.18
2024-05-09T18:19:46.115Z,102474.68
2024-05-09T18:22:16.256Z,102478.33
2024-05-09T18:24:46.614Z,102476.17
2024-05-09T18:27:16.871Z,102478.03
2024-05-09T18:29:46.830Z,102480.87
2024-05-09T18:32:16.913Z,102475.86
2024-05-09T18:34:46.952Z,102478.50
2024-05-09T18:37:17.192Z,102476.31
2024-05-09T18:39:47.375Z,102479.64
2024-05-09T18:42:16.951Z,102480.67
2024-05-09T18:44:47.014Z,102480.67
2024-05-09T18:47:20.105Z,102484.29
2024-05-09T18:49:49.170Z,102487.77
2024-05-09T18:52:18.850Z,102489.03
2024-05-09T18:54:48.877Z,102494.95
2024-05-09T18:57:18.545Z,102498.67
2024-05-09T18:59:48.461Z,102498.33
2024-05-09T19:02:18.586Z,102498.17
2024-05-09T19:04:49.583Z,102500.52
2024-05-09T19:07:19.871Z,102500.26
2024-05-09T19:09:50.050Z,102501.36
2024-05-09T19:12:19.703Z,102498.73
2024-05-09T19:14:49.592Z,102502.59
2024-05-09T19:17:19.626Z,102499.77
2024-05-09T19:19:51.577Z,102496.10
2024-05-09T19:22:21.472Z,102483.62
2024-05-09T19:24:51.798Z,102483.62
2024-05-09T19:27:21.803Z,102494.44
2024-05-09T19:29:53.400Z,102500.34
2024-05-09T19:32:23.094Z,102504.88
2024-05-09T19:34:52.930Z,102502.20
2024-05-09T19:37:22.926Z,102505.27
2024-05-09T19:39:52.872Z,102503.77
2024-05-09T19:42:22.844Z,102500.67
2024-05-09T19:44:52.771Z,102504.31
2024-05-09T19:47:22.857Z,102511.14
2024-05-09T19:49:53.096Z,102513.56
2024-05-09T19:52:23.132Z,102511.09
2024-05-09T19:54:53.062Z,102519.59
2024-05-09T19:57:23.010Z,102514.50
2024-05-09T19:59:52.912Z,102513.61
2024-05-09T20:02:23.047Z,102509.66
2024-05-09T20:04:53.480Z,102515.70
2024-05-09T20:07:23.418Z,102511.97
2024-05-09T20:09:53.301Z,102513.58
2024-05-09T20:12:23.263Z,102507.94
2024-05-09T20:14:52.898Z,102512.63
2024-05-09T20:17:22.781Z,102509.66
2024-05-09T20:19:52.936Z,102510.06
2024-05-09T20:22:22.691Z,102513.95
2024-05-09T20:24:52.681Z,102507.80
2024-05-09T20:27:22.582Z,102508.02
2024-05-09T20:29:52.594Z,102506.82
2024-05-09T20:32:22.658Z,102506.42
2024-05-09T20:34:52.637Z,102510.88
2024-05-09T20:37:22.976Z,102497.73
2024-05-09T20:39:52.914Z,102497.73
2024-05-09T20:42:22.864Z,102516.84
2024-05-09T20:44:53.083Z,102515.99
2024-05-09T20:47:23.015Z,102513.55
2024-05-09T20:49:53.064Z,102516.41
2024-05-09T20:52:22.884Z,102512.48
2024-05-09T20:54:53.062Z,102508.20
2024-05-09T20:57:23.157Z,102516.31
2024-05-09T20:59:53.338Z,102511.41
2024-05-09T21:02:23.391Z,102524.59
2024-05-09T21:04:53.693Z,102520.98
2024-05-09T21:07:23.772Z,102520.14
2024-05-09T21:09:53.812Z,102520.80
2024-05-09T21:12:23.376Z,102525.66
2024-05-09T21:14:53.275Z,102528.64
2024-05-09T21:17:23.395Z,102526.41
2024-05-09T21:19:53.609Z,102526.95
2024-05-09T21:22:23.233Z,102528.91
2024-05-09T21:24:52.883Z,102522.68
2024-05-09T21:27:24.390Z,102519.69
2024-05-09T21:29:54.237Z,102510.56
2024-05-09T21:32:24.209Z,102510.56
2024-05-09T21:34:54.598Z,102525.34
2024-05-09T21:37:24.621Z,102513.36
2024-05-09T21:39:54.819Z,102513.36
2024-05-09T21:42:24.818Z,102536.27
2024-05-09T21:44:55.064Z,102534.28
2024-05-09T21:47:25.261Z,102528.02
2024-05-09T21:49:55.398Z,102533.62
2024-05-09T21:52:25.427Z,102532.14
2024-05-09T21:54:55.617Z,102514.01
2024-05-09T21:57:25.385Z,102514.01
2024-05-09T21:59:55.385Z,102512.00
2024-05-09T22:02:25.651Z,102512.00
2024-05-09T22:04:55.951Z,102534.17
2024-05-09T22:07:26.311Z,102534.17
2024-05-09T22:09:56.261Z,102507.64
2024-05-09T22:12:25.861Z,102507.64
2024-05-09T22:14:55.864Z,102525.68
2024-05-09T22:17:25.892Z,102520.47
2024-05-09T22:19:55.882Z,102520.80
2024-05-09T22:22:26.738Z,102517.59
2024-05-09T22:24:57.116Z,102573.26
2024-05-09T22:27:27.207Z,102507.83
2024-05-09T22:29:57.177Z,102528.87
2024-05-09T22:32:27.216Z,102505.17
2024-05-09T22:34:57.228Z,102519.52
2024-05-09T22:37:27.196Z,102519.52
2024-05-09T22:39:57.411Z,102518.00
2024-05-09T22:42:28.388Z,102516.60
2024-05-09T22:44:58.360Z,102514.42
2024-05-09T22:47:28.289Z,102514.42
2024-05-09T22:49:58.457Z,102521.80
2024-05-09T22:52:28.402Z,102521.80
2024-05-09T22:54:58.335Z,102525.36
2024-05-09T22:57:28.723Z,102525.61
2024-05-09T22:59:58.723Z,102511.40
2024-05-09T23:02:28.741Z,102511.40
2024-05-09T23:04:59.034Z,102523.13
2024-05-09T23:07:28.987Z,102521.80
2024-05-09T23:09:58.910Z,102504.70
2024-05-09T23:12:28.876Z,102504.70
2024-05-09T23:14:59.155Z,102525.02
2024-05-09T23:17:28.996Z,102525.02
2024-05-09T23:19:58.972Z,102509.61
2024-05-09T23:22:28.879Z,102509.61
2024-05-09T23:24:59.153Z,102523.72
2024-05-09T23:27:29.065Z,102523.72
2024-05-09T23:29:59.037Z,102523.81
2024-05-09T23:32:29.224Z,102519.75
2024-05-09T23:34:59.305Z,102521.85
2024-05-09T23:37:29.288Z,102521.85
2024-05-09T23:39:59.278Z,102502.71
2024-05-09T23:42:29.350Z,102502.71
2024-05-09T23:44:59.211Z,102499.32
2024-05-09T23:47:28.975Z,102499.32
2024-05-09T23:49:59.275Z,102500.95
2024-05-09T23:52:29.360Z,102500.95
2024-05-09T23:54:59.467Z,102499.64
2024-05-09T23:57:29.341Z,102499.64
